createdAt,value
2023-03-24T00:03:34.630Z,7.70
2023-03-24T00:08:41.509Z,11.00
2023-03-24T00:13:50.409Z,6.90
2023-03-24T00:18:56.583Z,6.40
2023-03-24T00:24:03.013Z,8.30
2023-03-24T00:29:13.869Z,9.20
2023-03-24T00:34:21.853Z,8.70
2023-03-24T00:39:27.621Z,9.40
2023-03-24T00:44:34.434Z,9.00
2023-03-24T00:49:44.827Z,8.60
2023-03-24T00:54:55.297Z,12.10
2023-03-24T01:00:14.658Z,11.00
2023-03-24T01:05:28.465Z,8.20
2023-03-24T01:10:36.320Z,11.40
2023-03-24T01:15:41.884Z,9.20
2023-03-24T01:20:51.528Z,9.40
2023-03-24T01:25:57.124Z,11.20
2023-03-24T01:31:02.913Z,10.20
2023-03-24T01:36:09.790Z,9.90
2023-03-24T01:41:15.625Z,11.80
2023-03-24T01:46:22.908Z,11.20
2023-03-24T01:51:35.414Z,12.00
2023-03-24T01:56:47.314Z,9.80
2023-03-24T02:02:04.986Z,13.60
2023-03-24T02:07:22.097Z,12.00
2023-03-24T02:12:27.746Z,10.80
2023-03-24T02:17:54.795Z,14.00
2023-03-24T02:23:24.535Z,11.70
2023-03-24T02:28:43.317Z,14.70
2023-03-24T02:34:19.207Z,11.30
2023-03-24T02:39:47.547Z,11.40
2023-03-24T02:45:04.923Z,13.20
2023-03-24T02:50:18.451Z,15.70
2023-03-24T02:55:31.545Z,10.50
2023-03-24T03:00:47.345Z,14.80
2023-03-24T03:06:23.601Z,15.30
2023-03-24T03:11:29.181Z,17.20
2023-03-24T03:16:39.378Z,14.10
2023-03-24T03:21:48.368Z,14.70
2023-03-24T03:27:00.365Z,13.10
2023-03-24T03:32:17.811Z,12.90
2023-03-24T03:37:30.608Z,16.80
2023-03-24T03:42:36.838Z,16.10
2023-03-24T03:47:43.195Z,13.50
2023-03-24T03:52:50.968Z,25.30
2023-03-24T03:57:56.733Z,23.30
2023-03-24T04:03:39.300Z,23.40
2023-03-24T04:08:50.965Z,22.60
2023-03-24T04:14:11.535Z,20.50
2023-03-24T04:19:40.776Z,18.90
2023-03-24T04:24:51.801Z,21.90
2023-03-24T04:30:16.519Z,23.60
2023-03-24T04:35:42.070Z,25.60
2023-03-24T04:40:58.790Z,24.80
2023-03-24T04:46:05.691Z,31.10
2023-03-24T04:51:33.110Z,30.80
2023-03-24T04:56:52.029Z,25.20
2023-03-24T05:02:03.001Z,28.30
2023-03-24T05:07:17.526Z,21.90
2023-03-24T05:12:24.984Z,23.40
2023-03-24T05:17:54.697Z,21.80
2023-03-24T05:23:02.910Z,21.60
2023-03-24T05:28:08.526Z,22.60
2023-03-24T05:33:14.360Z,25.10
2023-03-24T05:38:19.873Z,28.50
2023-03-24T05:43:27.881Z,20.80
2023-03-24T05:48:44.457Z,13.30
2023-03-24T05:53:52.698Z,15.20
2023-03-24T05:59:03.083Z,16.60
2023-03-24T06:04:36.024Z,34.80
2023-03-24T06:09:52.472Z,32.30
2023-03-24T06:14:59.054Z,21.30
2023-03-24T06:20:14.975Z,17.70
2023-03-24T06:25:28.582Z,16.80
2023-03-24T06:30:45.180Z,20.70
2023-03-24T06:35:52.533Z,19.70
2023-03-24T06:41:03.663Z,40.60
2023-03-24T06:46:10.986Z,19.70
2023-03-24T06:51:19.228Z,27.30
2023-03-24T06:56:25.326Z,21.80
2023-03-24T07:01:36.109Z,22.50
2023-03-24T07:07:19.708Z,22.10
2023-03-24T07:12:31.146Z,22.90
2023-03-24T07:17:36.988Z,18.90
2023-03-24T07:22:59.133Z,21.40
2023-03-24T07:28:05.207Z,24.40
2023-03-24T07:33:12.504Z,19.10
2023-03-24T07:38:19.556Z,18.70
2023-03-24T07:43:26.345Z,21.70
2023-03-24T07:48:47.707Z,15.20
2023-03-24T07:53:53.517Z,13.80
2023-03-24T07:59:14.623Z,17.50
2023-03-24T08:04:42.919Z,15.60
2023-03-24T08:09:57.825Z,12.20
2023-03-24T08:15:04.124Z,15.00
2023-03-24T08:20:15.160Z,12.80
2023-03-24T08:25:24.082Z,15.70
2023-03-24T08:30:30.488Z,17.30
2023-03-24T08:35:40.072Z,20.40
2023-03-24T08:40:45.940Z,17.60
2023-03-24T08:45:51.879Z,11.90
2023-03-24T08:50:57.909Z,15.30
2023-03-24T08:56:06.045Z,28.10
2023-03-24T09:01:12.493Z,13.80
2023-03-24T09:06:18.099Z,13.20
2023-03-24T09:11:24.691Z,12.70
2023-03-24T09:16:31.792Z,15.30
2023-03-24T09:21:38.507Z,16.00
2023-03-24T09:26:44.330Z,11.40
2023-03-24T09:31:51.962Z,48.00
2023-03-24T09:36:57.475Z,14.10
2023-03-24T09:42:06.027Z,13.00
2023-03-24T09:47:21.963Z,10.10
2023-03-24T09:52:33.913Z,8.80
2023-03-24T09:57:44.418Z,11.70
2023-03-24T10:02:52.157Z,17.30
2023-03-24T10:08:06.053Z,10.20
2023-03-24T10:13:21.340Z,9.90
2023-03-24T10:18:34.713Z,13.30
2023-03-24T10:23:48.537Z,11.80
2023-03-24T10:29:04.862Z,12.20
2023-03-24T10:34:13.252Z,14.20
2023-03-24T10:39:21.111Z,13.10
2023-03-24T10:44:31.704Z,11.50
2023-03-24T10:49:38.363Z,13.40
2023-03-24T10:54:56.461Z,11.30
2023-03-24T11:00:26.898Z,11.70
2023-03-24T11:05:35.408Z,13.70
2023-03-24T11:10:40.972Z,13.30
2023-03-24T11:16:04.374Z,10.70
2023-03-24T11:21:10.056Z,11.00
2023-03-24T11:26:18.198Z,14.40
2023-03-24T11:31:25.934Z,13.20
2023-03-24T11:36:46.847Z,13.30
2023-03-24T11:42:04.552Z,13.20
2023-03-24T11:47:13.085Z,10.90
2023-03-24T11:52:24.252Z,12.80
2023-03-24T11:57:47.542Z,19.80
2023-03-24T12:03:19.766Z,10.80
2023-03-24T12:08:36.918Z,12.00
2023-03-24T12:13:45.408Z,12.80
2023-03-24T12:19:08.615Z,11.00
2023-03-24T12:24:24.391Z,10.60
2023-03-24T12:29:48.414Z,12.00
2023-03-24T12:35:27.253Z,15.70
2023-03-24T12:40:59.875Z,23.90
2023-03-24T12:46:37.117Z,12.60
2023-03-24T12:52:07.398Z,8.40
2023-03-24T12:57:16.443Z,7.30
2023-03-24T13:02:30.526Z,8.00
2023-03-24T13:07:39.419Z,5.90
2023-03-24T13:12:51.356Z,6.00
2023-03-24T13:18:06.977Z,7.60
2023-03-24T13:23:32.294Z,5.90
2023-03-24T13:28:46.997Z,5.50
2023-03-24T13:33:54.687Z,4.00
2023-03-24T13:39:05.560Z,4.00
2023-03-24T13:44:22.666Z,4.30
2023-03-24T13:49:30.582Z,3.70
2023-03-24T13:54:38.973Z,4.70
2023-03-24T14:00:08.527Z,6.80
2023-03-24T14:05:32.109Z,4.30
2023-03-24T14:10:46.115Z,6.20
2023-03-24T14:15:53.588Z,4.50
2023-03-24T14:21:04.013Z,6.10
2023-03-24T14:26:12.745Z,5.90
2023-03-24T14:31:24.597Z,7.00
2023-03-24T14:36:33.079Z,5.30
2023-03-24T14:41:42.285Z,3.90
2023-03-24T14:46:50.337Z,4.80
2023-03-24T14:52:01.982Z,5.80
2023-03-24T14:57:08.959Z,3.00
2023-03-24T15:02:23.948Z,3.60
2023-03-24T15:07:29.460Z,5.40
2023-03-24T15:12:35.287Z,4.80
2023-03-24T15:17:44.401Z,5.20
2023-03-24T15:22:51.047Z,7.20
2023-03-24T15:28:00.466Z,5.00
2023-03-24T15:33:06.780Z,14.40
2023-03-24T15:38:29.206Z,5.50
2023-03-24T15:43:41.111Z,7.20
2023-03-24T15:48:48.327Z,6.50
2023-03-24T15:53:59.036Z,7.80
2023-03-24T15:59:15.581Z,3.40
2023-03-24T16:04:23.384Z,5.50
2023-03-24T16:09:38.942Z,4.40
2023-03-24T16:14:44.266Z,6.90
2023-03-24T16:19:50.198Z,7.10
2023-03-24T16:24:55.627Z,8.50
2023-03-24T16:30:01.963Z,6.40
2023-03-24T16:35:09.324Z,6.70
2023-03-24T16:40:25.713Z,6.40
2023-03-24T16:45:31.848Z,16.80
2023-03-24T16:50:40.911Z,11.40
2023-03-24T16:55:47.738Z,7.80
2023-03-24T17:00:55.069Z,6.70
2023-03-24T17:06:01.669Z,7.10
2023-03-24T17:11:11.270Z,8.80
2023-03-24T17:16:17.151Z,6.00
2023-03-24T17:21:23.810Z,11.30
2023-03-24T17:26:30.961Z,8.70
2023-03-24T17:31:37.667Z,8.60
2023-03-24T17:36:43.098Z,9.60
2023-03-24T17:41:48.504Z,10.90
2023-03-24T17:46:54.339Z,8.10
2023-03-24T17:51:59.812Z,10.20
2023-03-24T17:57:05.472Z,8.50
2023-03-24T18:02:13.800Z,10.80
2023-03-24T18:07:19.835Z,13.10
2023-03-24T18:12:26.171Z,9.20
2023-03-24T18:17:31.724Z,12.00
2023-03-24T18:22:40.769Z,13.20
2023-03-24T18:27:46.577Z,11.40
2023-03-24T18:32:52.199Z,12.20
2023-03-24T18:37:57.992Z,10.10
2023-03-24T18:43:03.489Z,12.50
2023-03-24T18:48:10.226Z,12.60
2023-03-24T18:53:16.129Z,9.90
2023-03-24T18:58:22.308Z,9.80
2023-03-24T19:03:29.012Z,9.30
2023-03-24T19:08:35.827Z,11.60
2023-03-24T19:13:41.566Z,11.10
2023-03-24T19:18:48.631Z,14.20
2023-03-24T19:23:54.469Z,8.70
2023-03-24T19:28:59.785Z,11.10
2023-03-24T19:34:05.261Z,8.70
2023-03-24T19:39:13.668Z,9.10
2023-03-24T19:44:19.252Z,14.50
2023-03-24T19:49:24.825Z,8.00
2023-03-24T19:54:30.666Z,7.70
2023-03-24T19:59:37.419Z,9.70
2023-03-24T20:04:43.329Z,8.60
2023-03-24T20:09:48.999Z,12.10
2023-03-24T20:14:54.903Z,10.30
2023-03-24T20:20:01.080Z,9.80
2023-03-24T20:25:08.812Z,11.40
2023-03-24T20:30:16.358Z,15.50
2023-03-24T20:35:22.628Z,10.80
2023-03-24T20:40:28.168Z,10.60
2023-03-24T20:45:33.674Z,9.70
2023-03-24T20:50:39.462Z,9.80
2023-03-24T20:55:49.055Z,10.30
2023-03-24T21:00:55.186Z,11.00
2023-03-24T21:06:01.468Z,9.20
2023-03-24T21:11:06.951Z,13.10
2023-03-24T21:16:13.769Z,12.30
2023-03-24T21:21:19.446Z,10.80
2023-03-24T21:26:25.812Z,11.20
2023-03-24T21:31:31.229Z,10.30
2023-03-24T21:36:38.597Z,8.90
2023-03-24T21:41:44.660Z,7.30
2023-03-24T21:46:50.078Z,7.70
2023-03-24T21:51:56.801Z,6.40
2023-03-24T21:57:04.082Z,6.20
2023-03-24T22:02:14.512Z,7.70
2023-03-24T22:07:22.535Z,5.80
2023-03-24T22:12:27.909Z,5.50
2023-03-24T22:17:33.396Z,9.50
2023-03-24T22:22:39.850Z,4.40
2023-03-24T22:27:46.225Z,5.50
2023-03-24T22:32:51.656Z,6.00
2023-03-24T22:37:57.209Z,7.50
2023-03-24T22:43:02.670Z,5.80
2023-03-24T22:48:08.439Z,5.60
2023-03-24T22:53:14.131Z,7.90
2023-03-24T22:58:19.578Z,7.00
2023-03-24T23:03:25.482Z,6.30
2023-03-24T23:08:32.649Z,5.30
2023-03-24T23:13:38.864Z,6.20
2023-03-24T23:18:44.618Z,6.10
2023-03-24T23:23:51.128Z,5.90
2023-03-24T23:28:57.219Z,6.40
2023-03-24T23:34:04.537Z,7.20
2023-03-24T23:39:10.646Z,8.40
2023-03-24T23:44:19.608Z,6.10
2023-03-24T23:49:25.567Z,5.30
2023-03-24T23:54:45.355Z,7.00
2023-03-24T23:59:53.153Z,6.90
